Time;durP1;ratioP1;P1;durP2;ratioP2;P2;SDS_P1;SDS_P2;PMS_P1;PMS_P2;Temp;Humidity;BMP_temperature;BMP_pressure;BME280_temperature;BME280_humidity;BME280_pressure;Samples;Min_cycle;Max_cycle;Signal;HPM_P1;HPM_P2
2023/04/30 00:00:09;;;;;;;12.65;7.07;;;6.40;99.90;;;;;;4878005;28;95086;-30
2023/04/30 00:02:34;;;;;;;15.30;7.43;;;6.40;99.90;;;;;;4886839;28;95155;-31
2023/04/30 00:05:00;;;;;;;7.65;6.78;;;6.40;99.90;;;;;;4880990;28;92861;-31
2023/04/30 00:07:26;;;;;;;10.80;6.97;;;6.40;99.90;;;;;;4878287;28;93147;-30
2023/04/30 00:09:51;;;;;;;11.02;6.78;;;6.40;99.90;;;;;;4878033;28;96087;-31
2023/04/30 00:12:17;;;;;;;12.48;7.68;;;6.40;99.90;;;;;;4878868;28;95601;-34
2023/04/30 00:14:43;;;;;;;10.48;7.03;;;6.40;99.90;;;;;;4879196;28;93459;-33
2023/04/30 00:17:08;;;;;;;13.73;7.78;;;6.30;99.90;;;;;;4880826;28;93584;-30
2023/04/30 00:19:34;;;;;;;10.63;8.25;;;6.30;99.90;;;;;;4868887;28;94915;-33
2023/04/30 00:22:04;;;;;;;9.25;6.10;;;6.30;99.90;;;;;;4881789;28;94579;-30
2023/04/30 00:24:29;;;;;;;11.52;7.85;;;6.30;99.90;;;;;;4882075;28;92148;-31
2023/04/30 00:26:55;;;;;;;14.50;6.60;;;6.30;99.90;;;;;;4880460;28;93677;-31
2023/04/30 00:29:21;;;;;;;12.70;8.73;;;6.20;99.90;;;;;;4880046;28;94457;-31
2023/04/30 00:31:46;;;;;;;8.13;6.30;;;6.20;99.90;;;;;;4881247;28;93609;-34
2023/04/30 00:34:12;;;;;;;16.48;7.63;;;6.30;99.90;;;;;;4881475;28;94295;-36
2023/04/30 00:36:39;;;;;;;9.50;7.20;;;6.20;99.90;;;;;;4881921;28;93073;-34
2023/04/30 00:39:05;;;;;;;11.32;8.18;;;6.20;99.90;;;;;;4880828;28;94951;-30
2023/04/30 00:41:32;;;;;;;12.15;7.05;;;6.20;99.90;;;;;;4881504;28;94684;-34
2023/04/30 00:43:57;;;;;;;10.25;8.15;;;6.10;99.90;;;;;;4882025;28;94866;-32
2023/04/30 00:46:23;;;;;;;14.93;7.70;;;6.10;99.90;;;;;;4880565;28;93400;-34
2023/04/30 00:48:49;;;;;;;20.02;7.20;;;6.10;99.90;;;;;;4881445;28;94542;-29
2023/04/30 00:51:15;;;;;;;9.93;7.85;;;6.10;99.90;;;;;;4881123;28;93981;-32
2023/04/30 00:53:40;;;;;;;9.27;7.78;;;6.10;99.90;;;;;;4881989;28;93638;-32
2023/04/30 00:56:08;;;;;;;8.25;7.38;;;6.10;99.90;;;;;;4881817;28;93422;-35
2023/04/30 00:58:34;;;;;;;10.82;7.07;;;6.00;99.90;;;;;;4880392;28;95747;-34
2023/04/30 01:01:02;;;;;;;20.30;8.48;;;6.00;99.90;;;;;;4881335;28;95662;-31
2023/04/30 01:03:28;;;;;;;8.73;6.63;;;6.00;99.90;;;;;;4881878;28;94269;-31
2023/04/30 01:05:53;;;;;;;6.30;5.70;;;6.00;99.90;;;;;;4881136;28;93472;-33
2023/04/30 01:08:20;;;;;;;8.27;7.05;;;6.00;99.90;;;;;;4880834;28;94969;-31
2023/04/30 01:11:25;;;;;;;9.75;8.02;;;6.00;99.90;;;;;;4880995;28;94413;-31
2023/04/30 01:14:12;;;;;;;11.13;8.02;;;6.00;99.90;;;;;;4878892;28;93462;-29
2023/04/30 01:16:53;;;;;;;32.88;7.90;;;6.00;99.90;;;;;;4881374;28;91492;-32
2023/04/30 01:19:30;;;;;;;9.27;7.78;;;6.00;99.90;;;;;;4868129;28;94781;-32
2023/04/30 01:22:00;;;;;;;12.47;7.30;;;5.90;99.90;;;;;;4881171;28;94430;-30
2023/04/30 01:24:47;;;;;;;13.48;7.20;;;5.90;99.90;;;;;;4879997;28;93100;-32
2023/04/30 01:27:31;;;;;;;7.78;6.20;;;5.90;99.90;;;;;;4879555;28;92826;-33
2023/04/30 01:30:00;;;;;;;14.95;6.63;;;5.90;99.90;;;;;;4871738;28;94388;-30
2023/04/30 01:32:26;;;;;;;9.70;6.05;;;5.90;99.90;;;;;;4880963;28;94328;-31
2023/04/30 01:34:51;;;;;;;7.80;7.07;;;5.80;99.90;;;;;;4880909;28;93361;-30
2023/04/30 01:37:23;;;;;;;12.05;6.85;;;5.90;99.90;;;;;;4880740;28;92893;-32
2023/04/30 01:40:13;;;;;;;9.65;6.35;;;5.80;99.90;;;;;;4880618;28;94818;-35
2023/04/30 01:43:11;;;;;;;12.18;7.70;;;5.80;99.90;;;;;;4880945;28;94456;-30
2023/04/30 01:45:42;;;;;;;13.63;8.18;;;5.70;99.90;;;;;;4880898;28;93643;-32
2023/04/30 01:48:19;;;;;;;7.72;6.10;;;5.70;99.90;;;;;;4880105;28;93055;-31
2023/04/30 01:50:52;;;;;;;13.48;7.63;;;5.70;99.90;;;;;;4879951;28;95915;-31
2023/04/30 01:53:23;;;;;;;11.15;8.15;;;5.70;99.90;;;;;;4880377;28;96908;-32
2023/04/30 01:56:02;;;;;;;18.58;7.72;;;5.70;99.90;;;;;;4881516;28;93243;-30
2023/04/30 01:58:29;;;;;;;17.88;8.10;;;5.70;99.90;;;;;;4880372;28;93765;-30
2023/04/30 02:00:54;;;;;;;9.23;7.85;;;5.70;99.90;;;;;;4880296;28;95189;-33
2023/04/30 02:03:20;;;;;;;8.80;7.72;;;5.70;99.90;;;;;;4880127;28;94205;-31
2023/04/30 02:05:47;;;;;;;13.68;7.28;;;5.70;99.90;;;;;;4880033;28;92914;-30
2023/04/30 02:08:12;;;;;;;14.55;9.00;;;5.60;99.90;;;;;;4880440;28;92306;-30
2023/04/30 02:10:38;;;;;;;8.77;6.82;;;5.50;99.90;;;;;;4880625;28;94778;-33
2023/04/30 02:13:04;;;;;;;8.48;6.75;;;5.60;99.90;;;;;;4879735;28;94747;-31
2023/04/30 02:15:29;;;;;;;8.73;6.88;;;5.50;99.90;;;;;;4880405;28;94089;-31
2023/04/30 02:17:55;;;;;;;10.07;7.07;;;5.50;99.90;;;;;;4876392;28;92875;-32
2023/04/30 02:20:20;;;;;;;8.57;7.05;;;5.50;99.90;;;;;;4870508;28;94841;-31
2023/04/30 02:22:46;;;;;;;7.05;6.03;;;5.50;99.90;;;;;;4880806;28;94861;-31
2023/04/30 02:25:13;;;;;;;11.18;8.13;;;5.50;99.90;;;;;;4880037;28;93679;-32
2023/04/30 02:27:39;;;;;;;10.85;6.80;;;5.40;99.90;;;;;;4880532;28;93680;-33
2023/04/30 02:30:05;;;;;;;9.07;7.20;;;5.40;99.90;;;;;;4880273;28;94646;-32
2023/04/30 02:32:31;;;;;;;10.52;7.78;;;5.40;99.90;;;;;;4879865;28;94254;-31
2023/04/30 02:34:57;;;;;;;9.07;6.57;;;5.30;99.90;;;;;;4880762;28;92328;-33
2023/04/30 02:37:22;;;;;;;8.50;6.18;;;5.30;99.90;;;;;;4878876;28;94029;-33
2023/04/30 02:39:48;;;;;;;14.18;7.97;;;5.30;99.90;;;;;;4879012;28;95258;-30
2023/04/30 02:42:14;;;;;;;11.93;8.13;;;5.30;99.90;;;;;;4879286;28;95652;-31
2023/04/30 02:44:40;;;;;;;8.38;6.28;;;5.30;99.90;;;;;;4880133;28;92317;-30
2023/04/30 02:47:05;;;;;;;10.48;7.32;;;5.30;99.90;;;;;;4879671;28;93797;-31
2023/04/30 02:49:31;;;;;;;12.70;6.57;;;5.30;99.90;;;;;;4879465;28;95500;-30
2023/04/30 02:51:56;;;;;;;11.13;6.80;;;5.20;99.90;;;;;;4879814;28;94743;-32
2023/04/30 02:54:22;;;;;;;14.52;6.97;;;5.20;99.90;;;;;;4879829;28;94330;-32
2023/04/30 02:56:48;;;;;;;10.95;7.60;;;5.20;99.90;;;;;;4879974;28;94170;-35
2023/04/30 02:59:13;;;;;;;9.75;7.80;;;5.10;99.90;;;;;;4879277;28;94800;-31
2023/04/30 03:01:39;;;;;;;21.67;9.55;;;5.10;99.90;;;;;;4878431;28;94662;-34
2023/04/30 03:04:05;;;;;;;9.50;6.65;;;5.00;99.90;;;;;;4880167;28;95546;-30
2023/04/30 03:06:31;;;;;;;8.02;6.47;;;5.00;99.90;;;;;;4878067;28;93160;-33
2023/04/30 03:08:57;;;;;;;8.30;6.85;;;4.90;99.90;;;;;;4879846;28;95211;-32
2023/04/30 03:11:23;;;;;;;10.30;7.03;;;4.70;99.90;;;;;;4874443;28;94770;-31
2023/04/30 03:13:52;;;;;;;10.98;6.95;;;4.70;99.90;;;;;;4870849;28;94312;-30
2023/04/30 03:16:21;;;;;;;8.65;5.93;;;4.70;99.90;;;;;;4879532;28;94748;-30
2023/04/30 03:18:48;;;;;;;6.07;5.47;;;4.60;99.90;;;;;;4868964;28;94869;-33
2023/04/30 03:21:14;;;;;;;7.50;6.05;;;4.60;99.90;;;;;;4877413;28;94452;-30
2023/04/30 03:23:39;;;;;;;7.95;5.07;;;4.50;99.90;;;;;;4879584;28;92281;-31
2023/04/30 03:26:05;;;;;;;8.07;6.57;;;4.50;99.90;;;;;;4879702;28;94755;-32
2023/04/30 03:28:31;;;;;;;9.95;6.50;;;4.50;99.90;;;;;;4893015;28;97045;-30
2023/04/30 03:30:58;;;;;;;6.53;5.65;;;4.40;99.90;;;;;;4878925;28;95758;-31
2023/04/30 03:33:23;;;;;;;7.65;5.25;;;4.40;99.90;;;;;;4879708;28;93543;-33
2023/04/30 03:35:50;;;;;;;9.77;6.18;;;4.30;99.90;;;;;;4878974;28;94989;-34
2023/04/30 03:38:16;;;;;;;9.40;6.82;;;4.10;99.90;;;;;;4878647;28;94260;-31
2023/04/30 03:40:41;;;;;;;8.10;5.40;;;4.10;99.90;;;;;;4878864;28;94499;-30
2023/04/30 03:43:07;;;;;;;6.35;5.60;;;4.10;99.90;;;;;;4879139;28;92769;-32
2023/04/30 03:45:33;;;;;;;5.75;4.68;;;4.10;99.90;;;;;;4880296;28;93524;-30
2023/04/30 03:47:59;;;;;;;6.85;5.13;;;4.00;99.90;;;;;;4878669;28;94592;-33
2023/04/30 03:50:24;;;;;;;6.03;5.40;;;4.00;99.90;;;;;;4878641;28;94256;-34
2023/04/30 03:52:50;;;;;;;7.85;6.15;;;4.10;99.90;;;;;;4881994;28;95648;-32
2023/04/30 03:55:16;;;;;;;8.70;5.25;;;4.00;99.90;;;;;;4881805;28;93018;-32
2023/04/30 03:57:42;;;;;;;6.72;5.60;;;4.10;99.90;;;;;;4882596;28;94454;-34
2023/04/30 04:00:12;;;;;;;8.05;6.35;;;4.10;99.90;;;;;;4881609;28;95455;-32
2023/04/30 04:02:38;;;;;;;8.52;5.75;;;4.10;99.90;;;;;;4882402;28;93126;-32
2023/04/30 04:05:04;;;;;;;6.18;5.25;;;4.10;99.90;;;;;;4915056;23;94801;-33
2023/04/30 04:07:31;;;;;;;6.85;5.18;;;4.10;99.90;;;;;;4901198;28;95095;-34
2023/04/30 04:09:56;;;;;;;8.77;6.50;;;4.10;99.90;;;;;;4901219;28;93610;-31
2023/04/30 04:12:22;;;;;;;8.93;6.80;;;4.20;99.90;;;;;;4901665;28;92243;-30
2023/04/30 04:14:48;;;;;;;8.48;6.82;;;4.20;99.90;;;;;;4901224;28;95040;-30
2023/04/30 04:17:13;;;;;;;7.80;6.78;;;4.20;99.90;;;;;;4900062;28;95891;-30
2023/04/30 04:19:39;;;;;;;8.85;6.82;;;4.30;99.90;;;;;;4888287;28;95459;-32
2023/04/30 04:22:05;;;;;;;13.38;8.82;;;4.30;99.90;;;;;;4901191;28;94785;-30
2023/04/30 04:24:32;;;;;;;7.82;6.95;;;4.30;99.90;;;;;;4900942;28;93004;-31
2023/04/30 04:26:58;;;;;;;7.53;6.72;;;4.30;99.90;;;;;;4900800;28;94311;-31
2023/04/30 04:29:24;;;;;;;9.85;7.47;;;4.40;99.90;;;;;;4899178;28;94919;-30
2023/04/30 04:31:50;;;;;;;10.55;7.72;;;4.40;99.90;;;;;;4901666;28;92840;-30
2023/04/30 04:34:16;;;;;;;11.13;9.68;;;4.50;99.90;;;;;;4900325;28;93438;-30
2023/04/30 04:36:42;;;;;;;10.43;8.18;;;4.60;99.90;;;;;;4901169;28;93083;-33
2023/04/30 04:39:07;;;;;;;12.32;7.95;;;4.70;99.90;;;;;;4900110;28;95909;-30
2023/04/30 04:41:36;;;;;;;11.95;8.13;;;4.80;99.90;;;;;;4899989;28;95477;-32
2023/04/30 04:44:03;;;;;;;13.57;8.48;;;4.90;99.90;;;;;;4900446;28;94369;-36
2023/04/30 04:46:30;;;;;;;15.23;7.80;;;5.00;99.90;;;;;;4900607;28;94794;-33
2023/04/30 04:48:56;;;;;;;9.07;7.22;;;5.10;99.90;;;;;;4900762;28;93959;-30
2023/04/30 04:51:22;;;;;;;9.18;6.53;;;5.10;99.90;;;;;;4900851;28;93995;-35
2023/04/30 04:53:47;;;;;;;8.30;6.90;;;5.10;99.90;;;;;;4900563;28;93921;-30
2023/04/30 04:56:13;;;;;;;9.43;7.70;;;5.10;99.90;;;;;;4900118;28;94517;-30
2023/04/30 04:58:40;;;;;;;8.10;7.30;;;5.00;99.90;;;;;;4901236;28;94256;-33
2023/04/30 05:01:06;;;;;;;10.02;7.35;;;5.00;99.90;;;;;;4900891;28;94535;-30
2023/04/30 05:03:35;;;;;;;10.43;7.22;;;5.00;99.90;;;;;;4899805;28;92984;-31
2023/04/30 05:06:01;;;;;;;17.08;11.30;;;5.10;99.90;;;;;;4899452;28;95562;-34
2023/04/30 05:08:27;;;;;;;12.05;8.27;;;5.10;99.90;;;;;;4899007;28;94712;-30
2023/04/30 05:10:53;;;;;;;13.07;7.63;;;5.30;99.90;;;;;;4900399;28;92266;-31
2023/04/30 05:13:18;;;;;;;24.90;9.18;;;5.50;99.90;;;;;;4900687;28;94545;-30
2023/04/30 05:15:44;;;;;;;14.65;8.63;;;5.70;99.90;;;;;;4900071;28;94561;-31
2023/04/30 05:18:09;;;;;;;9.73;7.45;;;5.80;99.90;;;;;;4894044;28;94353;-30
2023/04/30 05:20:35;;;;;;;11.82;7.75;;;6.00;99.90;;;;;;4893141;28;93137;-30
2023/04/30 05:23:00;;;;;;;15.85;9.02;;;6.20;99.90;;;;;;4900016;28;92663;-31
2023/04/30 05:25:26;;;;;;;10.15;8.45;;;6.30;99.90;;;;;;4900571;28;94744;-31
2023/04/30 05:27:52;;;;;;;12.10;8.27;;;6.50;99.90;;;;;;4899567;28;94693;-34
2023/04/30 05:30:18;;;;;;;9.40;7.93;;;6.60;99.90;;;;;;4899894;28;94211;-30
2023/04/30 05:32:49;;;;;;;11.75;7.95;;;6.70;99.90;;;;;;4899781;28;94376;-33
2023/04/30 05:35:15;;;;;;;11.40;8.27;;;6.70;99.90;;;;;;4900097;28;94966;-33
2023/04/30 05:37:41;;;;;;;12.50;8.88;;;6.80;99.90;;;;;;4899893;28;94396;-30
2023/04/30 05:40:08;;;;;;;13.40;8.38;;;6.90;99.90;;;;;;4900192;28;92705;-33
2023/04/30 05:42:33;;;;;;;12.73;8.95;;;7.00;99.90;;;;;;4900318;28;93072;-30
2023/04/30 05:45:00;;;;;;;10.52;8.95;;;7.10;99.90;;;;;;4899277;28;95673;-31
2023/04/30 05:47:26;;;;;;;13.02;8.68;;;7.20;99.90;;;;;;4899565;28;94299;-32
2023/04/30 05:49:51;;;;;;;14.98;8.43;;;7.20;99.90;;;;;;4899571;28;93595;-33
2023/04/30 05:52:17;;;;;;;11.80;8.55;;;7.30;99.90;;;;;;4898937;28;92149;-32
2023/04/30 05:54:42;;;;;;;11.77;8.13;;;7.40;99.90;;;;;;4899541;28;95705;-34
2023/04/30 05:57:08;;;;;;;18.02;9.30;;;7.50;99.90;;;;;;4899496;28;94551;-31
2023/04/30 05:59:34;;;;;;;12.30;8.73;;;7.60;99.90;;;;;;4900379;28;92141;-33
2023/04/30 06:01:59;;;;;;;9.52;7.07;;;7.70;99.90;;;;;;4899371;28;92574;-33
2023/04/30 06:04:25;;;;;;;12.68;7.97;;;7.70;99.90;;;;;;4899490;28;94618;-32
2023/04/30 06:06:50;;;;;;;7.50;5.97;;;7.80;99.90;;;;;;4899172;28;94401;-33
2023/04/30 06:09:16;;;;;;;9.57;7.78;;;7.90;99.90;;;;;;4899987;28;93435;-31
2023/04/30 06:11:44;;;;;;;14.60;6.32;;;8.00;99.90;;;;;;4898876;28;91876;-32
2023/04/30 06:14:10;;;;;;;10.73;7.37;;;8.00;99.90;;;;;;4898092;28;94859;-32
2023/04/30 06:16:35;;;;;;;10.77;7.20;;;8.00;99.90;;;;;;4899162;28;94055;-32
2023/04/30 06:19:01;;;;;;;9.23;6.18;;;8.00;99.90;;;;;;4899616;28;95834;-32
2023/04/30 06:21:26;;;;;;;24.23;7.65;;;8.10;99.90;;;;;;4899068;28;93189;-32
2023/04/30 06:23:52;;;;;;;11.98;7.43;;;8.20;99.90;;;;;;4899529;28;94604;-35
2023/04/30 06:26:18;;;;;;;16.45;7.07;;;8.20;99.90;;;;;;4912285;28;94742;-30
2023/04/30 06:28:45;;;;;;;11.27;5.78;;;8.40;99.90;;;;;;4900090;28;94804;-35
2023/04/30 06:31:11;;;;;;;8.00;4.72;;;8.40;99.90;;;;;;4899623;28;93909;-29
2023/04/30 06:33:37;;;;;;;11.65;5.30;;;8.50;99.90;;;;;;4899267;28;94767;-30
2023/04/30 06:36:03;;;;;;;12.98;6.15;;;8.70;99.90;;;;;;4898987;28;94445;-30
2023/04/30 06:38:28;;;;;;;11.05;4.43;;;8.80;99.90;;;;;;4898994;28;94234;-35
2023/04/30 06:40:54;;;;;;;5.43;4.32;;;8.80;99.90;;;;;;4899186;28;92731;-32
2023/04/30 06:43:20;;;;;;;7.45;4.90;;;8.80;99.90;;;;;;4898347;28;97355;-32
2023/04/30 06:45:46;;;;;;;10.27;5.53;;;8.70;99.90;;;;;;4898228;28;95212;-31
2023/04/30 06:48:11;;;;;;;10.00;4.63;;;8.80;99.90;;;;;;4898666;28;92140;-32
2023/04/30 06:50:43;;;;;;;8.55;5.45;;;8.80;99.90;;;;;;4898397;28;92158;-30
2023/04/30 06:53:10;;;;;;;9.35;5.55;;;8.80;99.90;;;;;;4898866;28;96323;-29
2023/04/30 06:55:36;;;;;;;5.72;4.00;;;8.80;99.90;;;;;;4894857;28;94743;-36
2023/04/30 06:58:01;;;;;;;9.48;4.57;;;8.90;99.90;;;;;;4880957;28;93084;-33
2023/04/30 07:00:27;;;;;;;9.57;4.38;;;9.00;99.90;;;;;;4885485;28;93338;-34
2023/04/30 07:02:53;;;;;;;11.95;4.05;;;9.10;99.90;;;;;;4892082;28;94002;-31
2023/04/30 07:05:18;;;;;;;12.20;4.82;;;9.20;99.90;;;;;;4897797;28;95994;-31
2023/04/30 07:07:44;;;;;;;9.98;5.05;;;9.30;99.90;;;;;;4898591;28;95195;-31
2023/04/30 07:10:10;;;;;;;8.73;4.38;;;9.40;99.90;;;;;;4898704;28;93258;-32
2023/04/30 07:12:36;;;;;;;10.40;3.60;;;9.40;99.90;;;;;;4898325;28;94053;-31
2023/04/30 07:15:02;;;;;;;7.35;3.83;;;9.50;99.90;;;;;;4897763;28;94393;-34
2023/04/30 07:17:28;;;;;;;9.75;3.97;;;9.70;99.90;;;;;;4898860;28;93461;-32
2023/04/30 07:19:53;;;;;;;6.85;3.50;;;9.80;99.90;;;;;;4885662;28;92790;-31
2023/04/30 07:22:19;;;;;;;8.50;4.50;;;9.90;99.90;;;;;;4897991;28;94802;-33
2023/04/30 07:24:44;;;;;;;5.75;3.03;;;10.00;99.90;;;;;;4897406;28;95474;-31
2023/04/30 07:27:10;;;;;;;7.68;3.83;;;10.10;99.90;;;;;;4898798;28;92658;-33
2023/04/30 07:29:36;;;;;;;10.20;3.85;;;10.00;99.90;;;;;;4898550;28;92170;-32
2023/04/30 07:32:01;;;;;;;5.80;3.30;;;10.40;99.90;;;;;;4895153;28;95134;-30
2023/04/30 07:34:27;;;;;;;8.80;3.60;;;10.50;99.90;;;;;;4894054;28;95014;-33
2023/04/30 07:36:53;;;;;;;6.53;3.80;;;10.70;99.90;;;;;;4886733;28;93454;-31
2023/04/30 07:39:19;;;;;;;5.30;3.72;;;10.70;99.90;;;;;;4898070;28;94101;-30
2023/04/30 07:41:44;;;;;;;2.97;2.78;;;10.70;99.90;;;;;;4897938;28;94393;-32
2023/04/30 07:44:11;;;;;;;6.53;5.28;;;10.80;99.90;;;;;;4897421;28;94569;-33
2023/04/30 07:46:36;;;;;;;9.98;4.03;;;10.80;99.90;;;;;;4892491;28;92896;-31
2023/04/30 07:49:02;;;;;;;9.15;4.05;;;11.10;99.90;;;;;;4895892;28;91733;-31
2023/04/30 07:51:28;;;;;;;13.18;4.50;;;11.60;99.90;;;;;;4895176;28;94999;-33
2023/04/30 07:53:54;;;;;;;10.27;4.20;;;11.90;99.90;;;;;;4895099;28;94702;-34
2023/04/30 07:56:20;;;;;;;15.85;12.20;;;11.50;99.90;;;;;;4895098;28;95034;-31
2023/04/30 07:58:46;;;;;;;9.20;3.95;;;11.60;99.90;;;;;;4895550;28;94983;-32
2023/04/30 08:01:12;;;;;;;8.48;3.72;;;11.60;99.90;;;;;;4894720;28;95304;-32
2023/04/30 08:03:37;;;;;;;18.13;10.45;;;11.70;99.90;;;;;;4895836;28;94527;-30
2023/04/30 08:06:05;;;;;;;42.38;29.25;;;11.70;99.90;;;;;;4892613;28;94619;-33
2023/04/30 08:08:30;;;;;;;7.33;5.07;;;11.90;99.90;;;;;;4893252;28;92751;-33
2023/04/30 08:10:56;;;;;;;4.25;3.40;;;11.70;99.90;;;;;;4895212;28;94905;-34
2023/04/30 08:13:22;;;;;;;5.13;4.70;;;11.90;99.90;;;;;;4895216;28;95079;-34
2023/04/30 08:15:47;;;;;;;6.20;3.78;;;11.90;99.90;;;;;;4895411;28;92989;-33
2023/04/30 08:18:13;;;;;;;4.53;3.20;;;12.00;99.90;;;;;;4888834;28;92966;-32
2023/04/30 08:20:38;;;;;;;8.70;3.42;;;12.30;99.90;;;;;;4887688;28;95975;-33
2023/04/30 08:23:04;;;;;;;8.75;4.47;;;12.30;99.90;;;;;;4895035;28;96959;-32
2023/04/30 08:25:30;;;;;;;6.18;3.45;;;12.00;99.90;;;;;;4895924;28;93256;-32
2023/04/30 08:27:56;;;;;;;7.63;3.60;;;11.90;99.90;;;;;;4895119;28;94613;-32
2023/04/30 08:30:22;;;;;;;10.70;3.95;;;12.00;99.90;;;;;;4894109;28;94718;-33
2023/04/30 08:32:48;;;;;;;11.10;3.97;;;12.20;99.90;;;;;;4893874;28;93484;-32
2023/04/30 08:35:15;;;;;;;4.93;3.63;;;11.90;99.90;;;;;;4895073;28;93102;-31
2023/04/30 08:37:41;;;;;;;8.07;3.20;;;12.30;99.90;;;;;;4896913;28;93510;-29
2023/04/30 08:40:08;;;;;;;7.80;4.03;;;12.10;99.90;;;;;;4894103;28;94682;-32
2023/04/30 08:42:36;;;;;;;8.32;3.95;;;12.30;99.90;;;;;;4900636;28;94258;-31
2023/04/30 08:45:03;;;;;;;9.38;3.75;;;12.40;99.90;;;;;;4900223;28;93855;-31
2023/04/30 08:47:29;;;;;;;4.13;3.72;;;12.20;99.90;;;;;;4900276;28;95083;-29
2023/04/30 08:49:55;;;;;;;7.82;4.03;;;12.20;99.90;;;;;;4900610;28;95096;-30
2023/04/30 08:52:21;;;;;;;10.23;3.75;;;12.20;99.90;;;;;;4900270;28;95858;-32
2023/04/30 08:54:47;;;;;;;7.05;3.13;;;12.10;99.90;;;;;;4900325;28;93145;-33
2023/04/30 08:57:13;;;;;;;6.90;2.92;;;12.00;99.90;;;;;;4894944;28;94202;-31
2023/04/30 08:59:38;;;;;;;5.38;3.22;;;11.90;99.90;;;;;;4900086;28;93310;-34
2023/04/30 09:02:05;;;;;;;10.05;3.58;;;11.90;99.90;;;;;;4900786;28;94871;-33
2023/04/30 09:04:30;;;;;;;10.50;4.80;;;12.10;99.90;;;;;;4900135;28;92872;-34
2023/04/30 09:06:58;;;;;;;7.43;3.33;;;12.00;99.90;;;;;;4900008;28;94481;-35
2023/04/30 09:09:36;;;;;;;9.52;3.53;;;12.10;99.90;;;;;;4899778;28;95527;-34
2023/04/30 09:12:17;;;;;;;15.98;4.10;;;12.00;99.90;;;;;;4899888;28;95519;-31
2023/04/30 09:14:58;;;;;;;6.13;3.15;;;12.00;99.90;;;;;;4900976;28;92127;-34
2023/04/30 09:17:24;;;;;;;3.95;3.55;;;11.70;99.90;;;;;;4899179;28;94707;-31
2023/04/30 09:19:51;;;;;;;12.98;4.07;;;12.00;99.90;;;;;;4887547;28;94475;-32
2023/04/30 09:22:23;;;;;;;6.90;3.72;;;12.20;99.90;;;;;;4899368;28;94213;-33
2023/04/30 09:24:50;;;;;;;7.28;4.70;;;12.30;99.90;;;;;;4888309;28;94195;-31
2023/04/30 09:27:20;;;;;;;9.73;3.53;;;12.50;99.90;;;;;;4900203;28;93734;-33
2023/04/30 09:29:46;;;;;;;5.22;3.58;;;12.50;99.90;;;;;;4888385;28;94979;-32
2023/04/30 09:32:12;;;;;;;9.77;3.78;;;12.40;99.90;;;;;;4898695;28;94164;-31
2023/04/30 09:34:39;;;;;;;6.60;3.75;;;12.70;99.90;;;;;;4900639;28;95469;-35
2023/04/30 09:37:06;;;;;;;5.75;3.90;;;13.00;99.90;;;;;;4899919;28;93300;-31
2023/04/30 09:39:31;;;;;;;10.70;3.78;;;13.20;99.90;;;;;;4900151;28;94938;-30
2023/04/30 09:42:10;;;;;;;10.40;3.90;;;13.50;99.90;;;;;;4899713;28;95022;-31
2023/04/30 09:44:38;;;;;;;6.30;3.20;;;13.60;99.90;;;;;;4900504;28;93449;-34
2023/04/30 09:47:03;;;;;;;6.10;2.70;;;13.90;99.90;;;;;;4899639;28;94129;-33
2023/04/30 09:49:30;;;;;;;6.93;4.45;;;13.80;88.20;;;;;;4898123;28;94148;-33
2023/04/30 09:51:56;;;;;;;7.93;3.72;;;13.70;86.90;;;;;;4899764;28;94609;-32
2023/04/30 09:54:29;;;;;;;14.10;3.90;;;13.70;91.70;;;;;;4899816;28;94356;-34
2023/04/30 09:56:57;;;;;;;8.65;3.70;;;14.10;99.90;;;;;;4899297;28;93936;-32
2023/04/30 09:59:27;;;;;;;5.85;3.35;;;14.40;91.90;;;;;;4899079;28;94926;-34
2023/04/30 10:01:53;;;;;;;10.27;3.97;;;14.40;87.30;;;;;;4899633;28;95547;-30
2023/04/30 10:04:20;;;;;;;8.68;3.47;;;14.30;81.60;;;;;;4899812;28;94294;-33
2023/04/30 10:06:46;;;;;;;9.45;3.67;;;14.10;82.00;;;;;;4899424;28;93600;-33
2023/04/30 10:09:14;;;;;;;8.85;4.05;;;13.80;88.90;;;;;;4899458;28;94777;-30
2023/04/30 10:11:42;;;;;;;6.80;4.20;;;13.60;87.70;;;;;;4899242;28;94385;-31
2023/04/30 10:14:11;;;;;;;4.28;3.45;;;13.70;96.30;;;;;;4899414;28;94719;-30
2023/04/30 10:17:01;;;;;;;7.68;3.67;;;14.00;99.90;;;;;;4899355;28;93262;-31
2023/04/30 10:19:32;;;;;;;4.35;2.65;;;14.10;90.40;;;;;;4885502;28;94830;-32
2023/04/30 10:21:59;;;;;;;6.20;3.90;;;14.10;81.30;;;;;;4898625;28;94763;-30
2023/04/30 10:24:26;;;;;;;4.32;2.88;;;13.90;79.80;;;;;;4898626;28;95021;-31
2023/04/30 10:26:52;;;;;;;3.58;2.35;;;13.60;77.80;;;;;;4899851;28;93770;-31
2023/04/30 10:29:18;;;;;;;6.25;3.80;;;13.60;79.10;;;;;;4898936;28;95085;-33
2023/04/30 10:31:48;;;;;;;4.10;3.35;;;13.70;83.80;;;;;;4898831;28;95649;-32
2023/04/30 10:34:32;;;;;;;4.22;3.40;;;13.90;86.90;;;;;;4913315;28;93492;-32
2023/04/30 10:37:08;;;;;;;6.25;4.65;;;14.20;91.60;;;;;;4898837;28;94495;-30
2023/04/30 10:39:34;;;;;;;8.45;4.00;;;14.40;86.90;;;;;;4898678;28;94879;-34
2023/04/30 10:42:08;;;;;;;4.75;3.25;;;14.30;81.60;;;;;;4898998;28;95242;-34
2023/04/30 10:44:36;;;;;;;5.03;3.08;;;14.30;86.80;;;;;;4899133;28;94054;-31
2023/04/30 10:47:06;;;;;;;5.80;2.95;;;14.40;81.20;;;;;;4898059;28;94736;-33
2023/04/30 10:49:32;;;;;;;7.95;3.45;;;14.30;79.60;;;;;;4898377;28;96206;-30
2023/04/30 10:52:02;;;;;;;8.13;3.63;;;14.30;83.90;;;;;;4898765;28;95535;-33
2023/04/30 10:54:34;;;;;;;7.60;2.72;;;14.00;82.10;;;;;;4899189;28;92254;-35
2023/04/30 10:57:16;;;;;;;6.70;3.35;;;14.10;90.70;;;;;;4898084;28;92276;-32
2023/04/30 10:59:46;;;;;;;3.30;2.47;;;14.10;83.40;;;;;;4898167;28;94629;-30
2023/04/30 11:02:16;;;;;;;6.20;2.88;;;14.00;82.40;;;;;;4898387;28;94243;-31
2023/04/30 11:05:07;;;;;;;3.53;3.17;;;14.10;87.20;;;;;;4899218;28;92886;-32
2023/04/30 11:07:33;;;;;;;4.15;2.63;;;14.10;83.50;;;;;;4899089;28;92666;-32
2023/04/30 11:10:01;;;;;;;5.05;2.78;;;14.30;88.20;;;;;;4898154;28;94647;-31
2023/04/30 11:12:27;;;;;;;4.20;3.35;;;14.20;81.60;;;;;;4898039;28;95149;-34
2023/04/30 11:15:20;;;;;;;4.50;3.13;;;14.30;86.10;;;;;;4897729;28;95937;-35
2023/04/30 11:17:48;;;;;;;4.97;3.20;;;14.20;82.80;;;;;;4898061;28;93445;-32
2023/04/30 11:20:22;;;;;;;5.10;3.60;;;14.40;88.60;;;;;;4897559;28;94086;-31
2023/04/30 11:23:06;;;;;;;4.38;2.33;;;14.30;85.30;;;;;;4900819;28;96310;-34
2023/04/30 11:25:43;;;;;;;4.00;2.72;;;14.30;81.40;;;;;;4895883;28;92113;-35
2023/04/30 11:28:23;;;;;;;4.25;2.75;;;14.30;91.00;;;;;;4896376;28;92269;-32
2023/04/30 11:30:50;;;;;;;5.30;3.13;;;14.40;87.30;;;;;;4895420;28;94942;-30
2023/04/30 11:33:16;;;;;;;6.00;3.15;;;14.50;85.10;;;;;;4895997;28;94226;-32
2023/04/30 11:35:42;;;;;;;8.75;2.53;;;14.50;87.90;;;;;;4896519;28;94457;-32
2023/04/30 11:38:11;;;;;;;4.70;3.50;;;14.60;88.50;;;;;;4895656;28;93164;-30
2023/04/30 11:40:38;;;;;;;4.38;2.90;;;14.60;81.50;;;;;;4895299;28;95599;-31
2023/04/30 11:43:03;;;;;;;4.35;2.50;;;14.50;81.10;;;;;;4895934;28;95552;-33
2023/04/30 11:45:29;;;;;;;8.48;3.55;;;14.50;90.40;;;;;;4895518;28;93535;-33
2023/04/30 11:47:56;;;;;;;4.47;3.05;;;14.40;84.50;;;;;;4895851;28;94792;-31
2023/04/30 11:50:31;;;;;;;2.33;2.13;;;14.40;81.50;;;;;;4893520;28;94478;-30
2023/04/30 11:53:00;;;;;;;4.43;2.97;;;13.90;82.60;;;;;;4895423;28;95441;-32
2023/04/30 11:55:27;;;;;;;3.17;2.47;;;14.10;90.40;;;;;;4895146;28;93382;-35
2023/04/30 11:57:55;;;;;;;5.57;3.30;;;14.40;88.80;;;;;;4896274;28;92741;-35
2023/04/30 12:00:30;;;;;;;4.07;3.42;;;14.60;80.10;;;;;;4895723;28;94619;-32
2023/04/30 12:02:58;;;;;;;6.00;2.50;;;14.40;79.20;;;;;;4895323;28;94366;-32
2023/04/30 12:05:25;;;;;;;4.93;3.45;;;14.60;84.50;;;;;;4894133;28;93228;-31
2023/04/30 12:08:03;;;;;;;7.67;3.40;;;14.50;82.70;;;;;;4895499;28;94324;-35
2023/04/30 12:10:31;;;;;;;2.97;2.78;;;14.50;79.60;;;;;;4895229;28;94831;-33
2023/04/30 12:12:57;;;;;;;3.83;3.50;;;14.50;93.50;;;;;;4897755;28;94468;-30
2023/04/30 12:15:27;;;;;;;9.38;4.07;;;14.50;79.90;;;;;;4898967;28;95418;-31
2023/04/30 12:17:58;;;;;;;4.50;3.58;;;14.60;82.00;;;;;;4893366;28;94432;-32
2023/04/30 12:20:29;;;;;;;3.58;2.80;;;14.40;82.90;;;;;;4889751;28;97232;-32
2023/04/30 12:22:56;;;;;;;7.25;3.53;;;14.60;79.30;;;;;;4898812;28;95039;-32
2023/04/30 12:25:23;;;;;;;5.55;2.53;;;14.60;81.90;;;;;;4898920;28;93114;-35
2023/04/30 12:27:51;;;;;;;6.13;3.45;;;14.60;80.50;;;;;;4898895;28;94810;-32
2023/04/30 12:30:22;;;;;;;4.88;3.67;;;14.80;80.60;;;;;;4898409;28;93910;-35
2023/04/30 12:32:50;;;;;;;8.05;3.53;;;14.90;78.30;;;;;;4898817;28;95515;-32
2023/04/30 12:35:17;;;;;;;;;;;14.80;78.00;;;;;;4899513;28;94007;-31
2023/04/30 12:37:53;;;;;;;9.27;2.53;;;14.90;77.90;;;;;;4900336;28;94500;-30
2023/04/30 12:40:25;;;;;;;3.10;2.83;;;15.00;79.60;;;;;;4898014;28;94771;-34
2023/04/30 12:42:58;;;;;;;4.30;2.78;;;15.00;77.60;;;;;;4898459;28;94304;-33
2023/04/30 12:45:59;;;;;;;6.60;3.40;;;15.00;80.10;;;;;;4898737;28;93923;-32
2023/04/30 12:48:25;;;;;;;8.15;3.33;;;14.80;74.70;;;;;;4893751;28;92379;-35
2023/04/30 12:50:57;;;;;;;5.30;3.58;;;14.90;78.30;;;;;;4892392;28;94829;-32